Time;durP1;ratioP1;P1;durP2;ratioP2;P2;SDS_P1;SDS_P2;PMS_P1;PMS_P2;Temp;Humidity;BMP_temperature;BMP_pressure;BME280_temperature;BME280_humidity;BME280_pressure;Samples;Min_cycle;Max_cycle;Signal;HPM_P1;HPM_P2
2022/05/29 00:01:30;;;;;;;5.23;1.77;;;;;;;;;;5073247;28;20173;-77
2022/05/29 00:03:56;;;;;;;4.33;2.30;;;;;;;;;;5072742;28;21004;-75
2022/05/29 00:06:22;;;;;;;3.43;1.57;;;;;;;;;;5072024;28;20757;-76
2022/05/29 00:08:48;;;;;;;3.22;1.58;;;;;;;;;;5073109;28;20442;-75
2022/05/29 00:11:15;;;;;;;6.10;2.40;;;;;;;;;;5072919;28;20556;-77
2022/05/29 00:13:42;;;;;;;7.97;2.50;;;;;;;;;;5072514;28;20769;-75
2022/05/29 00:16:08;;;;;;;6.15;1.98;;;;;;;;;;5073060;28;20615;-76
2022/05/29 00:18:36;;;;;;;5.90;2.37;;;;;;;;;;5072976;28;20170;-75
2022/05/29 00:21:02;;;;;;;4.85;1.95;;;;;;;;;;5072958;28;20431;-75
2022/05/29 00:23:28;;;;;;;4.95;2.40;;;;;;;;;;5072448;28;20203;-74
2022/05/29 00:25:55;;;;;;;5.72;2.08;;;;;;;;;;5072934;28;20194;-75
2022/05/29 00:28:21;;;;;;;6.88;2.47;;;;;;;;;;5071671;28;20181;-75
2022/05/29 00:30:47;;;;;;;11.63;2.15;;;;;;;;;;5071543;28;20177;-75
2022/05/29 00:33:14;;;;;;;6.03;2.08;;;;;;;;;;5071270;28;20212;-76
2022/05/29 00:35:40;;;;;;;11.52;2.05;;;;;;;;;;5072540;28;20251;-75
2022/05/29 00:38:06;;;;;;;4.70;1.90;;;;;;;;;;5072664;28;20174;-76
2022/05/29 00:40:51;;;;;;;5.43;1.80;;;;;;;;;;5076782;28;20292;-76
2022/05/29 00:43:17;;;;;;;4.70;2.08;;;;;;;;;;5076566;28;20173;-77
2022/05/29 00:45:46;;;;;;;7.95;2.15;;;;;;;;;;5075468;28;20283;-76
2022/05/29 00:48:15;;;;;;;4.95;2.20;;;;;;;;;;5076629;28;20234;-74
2022/05/29 00:50:41;;;;;;;3.42;2.00;;;;;;;;;;5076721;28;20173;-76
2022/05/29 00:53:07;;;;;;;7.72;2.33;;;;;;;;;;5075123;28;20231;-77
2022/05/29 00:55:33;;;;;;;4.65;2.55;;;;;;;;;;5076449;28;20212;-76
2022/05/29 00:58:01;;;;;;;8.07;2.30;;;;;;;;;;5075180;28;20185;-75
2022/05/29 01:00:28;;;;;;;6.90;1.98;;;;;;;;;;5076433;28;20408;-75
2022/05/29 01:02:55;;;;;;;7.95;2.60;;;;;;;;;;5076049;28;20282;-75
2022/05/29 01:05:22;;;;;;;6.57;2.72;;;;;;;;;;5076234;28;20193;-75
2022/05/29 01:07:54;;;;;;;5.53;2.13;;;;;;;;;;5076222;28;20223;-76
2022/05/29 01:10:20;;;;;;;6.68;2.15;;;;;;;;;;5076345;28;20184;-73
2022/05/29 01:13:00;;;;;;;4.32;2.03;;;;;;;;;;5076250;28;20576;-76
2022/05/29 01:15:25;;;;;;;5.75;2.33;;;;;;;;;;5076098;28;20220;-74
2022/05/29 01:18:07;;;;;;;5.10;1.83;;;;;;;;;;5075949;28;20169;-74
2022/05/29 01:20:46;;;;;;;6.32;1.90;;;;;;;;;;5076002;28;20407;-75
2022/05/29 01:23:19;;;;;;;6.70;2.10;;;;;;;;;;5075568;28;20181;-75
2022/05/29 01:26:04;;;;;;;4.30;2.08;;;;;;;;;;5075892;28;20231;-75
2022/05/29 01:28:44;;;;;;;4.07;1.83;;;;;;;;;;5076184;28;20179;-76
2022/05/29 01:31:12;;;;;;;8.07;2.13;;;;;;;;;;5075794;28;20192;-77
2022/05/29 01:33:45;;;;;;;3.45;2.10;;;;;;;;;;5075457;28;20664;-75
2022/05/29 01:36:14;;;;;;;4.75;2.20;;;;;;;;;;5075736;28;20201;-76
2022/05/29 01:38:43;;;;;;;4.40;1.85;;;;;;;;;;5075718;28;20260;-74
2022/05/29 01:41:14;;;;;;;5.40;2.40;;;;;;;;;;5075778;28;20169;-74
2022/05/29 01:43:43;;;;;;;4.93;2.53;;;;;;;;;;5075400;28;20169;-74
2022/05/29 01:46:15;;;;;;;4.10;2.17;;;;;;;;;;5075544;28;20208;-75
2022/05/29 01:48:44;;;;;;;7.28;2.47;;;;;;;;;;5075277;28;20252;-74
2022/05/29 01:51:15;;;;;;;2.75;1.65;;;;;;;;;;5074546;28;20181;-74
2022/05/29 01:53:43;;;;;;;3.75;2.00;;;;;;;;;;5075087;28;20173;-76
2022/05/29 01:56:13;;;;;;;4.70;3.08;;;;;;;;;;5075286;28;20675;-76
2022/05/29 01:58:42;;;;;;;1.95;1.45;;;;;;;;;;5075579;28;20181;-76
2022/05/29 02:01:09;;;;;;;7.47;2.40;;;;;;;;;;5075468;28;20169;-77
2022/05/29 02:03:38;;;;;;;5.25;2.10;;;;;;;;;;5075073;28;20173;-75
2022/05/29 02:06:10;;;;;;;4.63;2.20;;;;;;;;;;5075234;28;20223;-76
2022/05/29 02:08:41;;;;;;;8.68;2.10;;;;;;;;;;5075201;28;20256;-75
2022/05/29 02:11:11;;;;;;;6.43;1.70;;;;;;;;;;5075254;28;20209;-77
2022/05/29 02:13:52;;;;;;;5.10;2.10;;;;;;;;;;5074860;28;20252;-75
2022/05/29 02:16:24;;;;;;;5.18;2.10;;;;;;;;;;5074811;28;20709;-77
2022/05/29 02:18:52;;;;;;;6.97;1.80;;;;;;;;;;5075250;28;20176;-75
2022/05/29 02:21:20;;;;;;;6.78;2.20;;;;;;;;;;5074928;28;20173;-73
2022/05/29 02:23:49;;;;;;;7.68;3.17;;;;;;;;;;5074619;28;20165;-76
2022/05/29 02:26:18;;;;;;;7.53;2.45;;;;;;;;;;5074829;28;20574;-75
2022/05/29 02:28:47;;;;;;;3.42;2.13;;;;;;;;;;5074658;28;20185;-76
2022/05/29 02:31:32;;;;;;;7.40;2.65;;;;;;;;;;5074535;28;20223;-74
2022/05/29 02:34:08;;;;;;;5.25;2.60;;;;;;;;;;5074253;28;20196;-74
2022/05/29 02:36:52;;;;;;;7.03;3.13;;;;;;;;;;5074532;28;20246;-76
2022/05/29 02:39:18;;;;;;;5.45;2.63;;;;;;;;;;5074737;28;20417;-75
2022/05/29 02:41:58;;;;;;;4.43;2.30;;;;;;;;;;5074574;28;20216;-75
2022/05/29 02:44:40;;;;;;;4.25;2.60;;;;;;;;;;5074146;28;20510;-77
2022/05/29 02:47:05;;;;;;;7.25;3.00;;;;;;;;;;5074467;28;20176;-76
2022/05/29 02:49:37;;;;;;;3.30;1.87;;;;;;;;;;5074609;28;20517;-74
2022/05/29 02:52:08;;;;;;;3.70;2.30;;;;;;;;;;5074307;28;20399;-76
2022/05/29 02:54:35;;;;;;;7.93;3.17;;;;;;;;;;5073962;28;20204;-77
2022/05/29 02:57:02;;;;;;;4.30;2.10;;;;;;;;;;5074299;28;20292;-74
2022/05/29 02:59:33;;;;;;;5.57;2.75;;;;;;;;;;5074137;28;20177;-76
2022/05/29 03:01:59;;;;;;;6.35;2.97;;;;;;;;;;5073679;28;20252;-76
2022/05/29 03:04:36;;;;;;;10.37;3.20;;;;;;;;;;5072340;28;20258;-75
2022/05/29 03:07:05;;;;;;;8.00;3.15;;;;;;;;;;5074219;28;20478;-75
2022/05/29 03:09:34;;;;;;;6.50;3.28;;;;;;;;;;5056166;28;20174;-75
2022/05/29 03:12:01;;;;;;;7.97;2.53;;;;;;;;;;5073862;28;20224;-75
2022/05/29 03:14:42;;;;;;;6.00;2.72;;;;;;;;;;5073496;28;20193;-77
2022/05/29 03:17:20;;;;;;;5.97;2.83;;;;;;;;;;5073659;28;20185;-75
2022/05/29 03:19:50;;;;;;;12.18;3.20;;;;;;;;;;5073790;28;20566;-75
2022/05/29 03:22:22;;;;;;;10.18;2.78;;;;;;;;;;5073794;28;20252;-75
2022/05/29 03:24:47;;;;;;;4.50;2.78;;;;;;;;;;5073115;28;20193;-77
2022/05/29 03:27:19;;;;;;;6.03;2.37;;;;;;;;;;5073521;28;20653;-76
2022/05/29 03:29:48;;;;;;;3.40;3.00;;;;;;;;;;5073682;28;20399;-75
2022/05/29 03:32:14;;;;;;;5.43;3.20;;;;;;;;;;5073508;28;20588;-77
2022/05/29 03:34:40;;;;;;;7.13;4.03;;;;;;;;;;5072977;28;20193;-76
2022/05/29 03:37:06;;;;;;;5.85;3.03;;;;;;;;;;5073414;28;20635;-76
2022/05/29 03:39:33;;;;;;;5.80;3.27;;;;;;;;;;5073790;28;20201;-77
2022/05/29 03:41:59;;;;;;;8.57;3.75;;;;;;;;;;5073444;28;20488;-75
2022/05/29 03:44:25;;;;;;;11.25;3.75;;;;;;;;;;5073166;28;20280;-76
2022/05/29 03:46:52;;;;;;;3.85;2.70;;;;;;;;;;5073568;28;20299;-74
2022/05/29 03:49:22;;;;;;;6.13;3.13;;;;;;;;;;5073347;28;20169;-74
2022/05/29 03:51:48;;;;;;;7.07;3.03;;;;;;;;;;5073448;28;20176;-75
2022/05/29 03:54:14;;;;;;;6.97;3.15;;;;;;;;;;5071521;28;20197;-75
2022/05/29 03:56:40;;;;;;;9.80;3.10;;;;;;;;;;5073226;28;20201;-76
2022/05/29 03:59:06;;;;;;;9.13;3.33;;;;;;;;;;5071860;28;20173;-75
2022/05/29 04:01:33;;;;;;;10.40;3.65;;;;;;;;;;5073263;28;20208;-75
2022/05/29 04:03:59;;;;;;;7.00;3.22;;;;;;;;;;5073062;28;20566;-74
2022/05/29 04:06:27;;;;;;;10.30;3.35;;;;;;;;;;5073147;28;20180;-74
2022/05/29 04:14:25;;;;;;;6.00;3.38;;;;;;;;;;5072445;28;20208;-76
2022/05/29 04:16:52;;;;;;;6.90;3.30;;;;;;;;;;5072979;28;20217;-74
2022/05/29 04:19:18;;;;;;;3.85;3.25;;;;;;;;;;5071526;28;20494;-75
2022/05/29 04:21:44;;;;;;;8.20;3.95;;;;;;;;;;5073039;28;20172;-76
2022/05/29 04:24:10;;;;;;;8.30;3.63;;;;;;;;;;5072522;28;20200;-74
2022/05/29 04:26:37;;;;;;;6.53;3.22;;;;;;;;;;5072893;28;20439;-75
2022/05/29 04:29:04;;;;;;;12.77;4.32;;;;;;;;;;5072887;28;20177;-75
2022/05/29 04:31:30;;;;;;;8.65;4.10;;;;;;;;;;5072747;28;20208;-75
2022/05/29 04:33:56;;;;;;;6.78;3.85;;;;;;;;;;5071471;28;20177;-75
2022/05/29 04:36:24;;;;;;;9.13;3.80;;;;;;;;;;5072980;28;20219;-75
2022/05/29 04:38:50;;;;;;;6.57;3.70;;;;;;;;;;5072942;28;20395;-75
2022/05/29 04:41:16;;;;;;;5.70;3.63;;;;;;;;;;5072777;28;20256;-75
2022/05/29 04:43:42;;;;;;;7.80;3.63;;;;;;;;;;5072394;28;20252;-75
2022/05/29 04:46:08;;;;;;;7.20;3.47;;;;;;;;;;5054893;28;20676;-74
2022/05/29 04:48:34;;;;;;;8.90;3.07;;;;;;;;;;5072650;28;20426;-74
2022/05/29 04:51:01;;;;;;;7.47;4.38;;;;;;;;;;5072844;28;20902;-76
2022/05/29 04:53:28;;;;;;;9.57;4.50;;;;;;;;;;5072328;28;20648;-76
2022/05/29 04:55:55;;;;;;;8.38;3.63;;;;;;;;;;5072644;28;20221;-75
2022/05/29 04:58:21;;;;;;;11.43;4.47;;;;;;;;;;5072840;28;20173;-75
2022/05/29 05:00:47;;;;;;;10.68;3.92;;;;;;;;;;5072776;28;20185;-74
2022/05/29 05:03:12;;;;;;;10.63;3.40;;;;;;;;;;5072492;28;20251;-77
2022/05/29 05:05:38;;;;;;;5.47;3.73;;;;;;;;;;5071221;28;20438;-74
2022/05/29 05:08:05;;;;;;;10.00;4.07;;;;;;;;;;5072583;28;20955;-76
2022/05/29 05:10:31;;;;;;;14.15;5.03;;;;;;;;;;5072586;28;20468;-75
2022/05/29 05:12:57;;;;;;;7.00;3.43;;;;;;;;;;5072229;28;20186;-75
2022/05/29 05:15:23;;;;;;;8.50;4.10;;;;;;;;;;5072196;28;20462;-75
2022/05/29 05:17:49;;;;;;;9.50;3.73;;;;;;;;;;5072358;28;20272;-75
2022/05/29 05:20:15;;;;;;;8.05;4.30;;;;;;;;;;5072476;28;20399;-76
2022/05/29 05:22:41;;;;;;;7.18;3.90;;;;;;;;;;5071148;28;20272;-74
2022/05/29 05:25:08;;;;;;;6.90;4.47;;;;;;;;;;5074484;28;20288;-75
2022/05/29 05:27:34;;;;;;;8.35;4.30;;;;;;;;;;5075865;28;20174;-76
2022/05/29 05:30:00;;;;;;;6.32;3.88;;;;;;;;;;5075823;28;20208;-76
2022/05/29 05:32:26;;;;;;;10.05;3.90;;;;;;;;;;5075705;28;20251;-73
2022/05/29 05:34:52;;;;;;;10.48;4.93;;;;;;;;;;5073969;28;20254;-76
2022/05/29 05:37:18;;;;;;;10.20;4.77;;;;;;;;;;5076030;28;20571;-75
2022/05/29 05:39:44;;;;;;;7.53;3.93;;;;;;;;;;5075755;28;20411;-74
2022/05/29 05:42:10;;;;;;;9.10;4.05;;;;;;;;;;5075717;28;20411;-76
2022/05/29 05:44:37;;;;;;;7.43;4.20;;;;;;;;;;5075259;28;20646;-76
2022/05/29 05:47:03;;;;;;;8.32;4.38;;;;;;;;;;5075755;28;20220;-75
2022/05/29 05:49:29;;;;;;;9.77;4.53;;;;;;;;;;5075680;28;20173;-76
2022/05/29 05:51:58;;;;;;;7.32;3.50;;;;;;;;;;5074180;28;20185;-74
2022/05/29 05:54:24;;;;;;;10.63;3.67;;;;;;;;;;5075042;28;20601;-75
2022/05/29 05:56:51;;;;;;;9.20;3.70;;;;;;;;;;5074209;28;20971;-76
2022/05/29 05:59:17;;;;;;;6.72;4.00;;;;;;;;;;5075521;28;20173;-75
2022/05/29 06:01:43;;;;;;;5.13;3.40;;;;;;;;;;5075251;28;20177;-76
2022/05/29 06:04:09;;;;;;;6.47;3.83;;;;;;;;;;5074662;28;20680;-74
2022/05/29 06:06:35;;;;;;;6.50;3.30;;;;;;;;;;5075082;28;20430;-76
2022/05/29 06:09:02;;;;;;;10.48;4.38;;;;;;;;;;5075152;28;20179;-76
2022/05/29 06:11:28;;;;;;;9.02;4.22;;;;;;;;;;5075029;28;20320;-75
2022/05/29 06:13:55;;;;;;;8.10;3.90;;;;;;;;;;5073224;28;20522;-75
2022/05/29 06:16:21;;;;;;;7.43;4.32;;;;;;;;;;5074794;28;20205;-77
2022/05/29 06:18:47;;;;;;;9.60;3.30;;;;;;;;;;5073687;28;20254;-75
2022/05/29 06:21:14;;;;;;;8.23;3.70;;;;;;;;;;5074912;28;20412;-75
2022/05/29 06:23:40;;;;;;;10.00;4.45;;;;;;;;;;5074407;28;20196;-74
2022/05/29 06:26:08;;;;;;;6.07;4.00;;;;;;;;;;5074570;28;20173;-75
2022/05/29 06:28:34;;;;;;;10.48;4.32;;;;;;;;;;5074824;28;20188;-76
2022/05/29 06:31:02;;;;;;;8.60;4.05;;;;;;;;;;5074573;28;20602;-74
2022/05/29 06:33:29;;;;;;;9.77;4.57;;;;;;;;;;5074332;28;20188;-77
2022/05/29 06:35:55;;;;;;;6.93;4.03;;;;;;;;;;5073548;28;20231;-75
2022/05/29 06:38:21;;;;;;;11.35;4.43;;;;;;;;;;5074882;28;20517;-76
2022/05/29 06:40:49;;;;;;;15.38;4.57;;;;;;;;;;5056713;28;20182;-76
2022/05/29 06:43:16;;;;;;;13.10;4.38;;;;;;;;;;5074123;28;20284;-78
2022/05/29 06:45:42;;;;;;;10.57;4.60;;;;;;;;;;5074375;28;20715;-76
2022/05/29 06:48:08;;;;;;;7.53;3.55;;;;;;;;;;5074481;28;20203;-75
2022/05/29 06:50:34;;;;;;;8.73;3.90;;;;;;;;;;5074221;28;20290;-75
2022/05/29 06:53:00;;;;;;;10.10;4.10;;;;;;;;;;5073898;28;20581;-76
2022/05/29 06:55:26;;;;;;;5.50;3.73;;;;;;;;;;5072711;28;20506;-76
2022/05/29 06:57:52;;;;;;;12.27;4.18;;;;;;;;;;5073256;28;20420;-77
2022/05/29 07:08:32;;;;;;;6.77;3.50;;;;;;;;;;5074159;28;20545;-75
2022/05/29 07:11:07;;;;;;;6.40;3.70;;;;;;;;;;5073916;28;20904;-77
2022/05/29 07:13:34;;;;;;;8.50;3.37;;;;;;;;;;5072195;28;20407;-75
2022/05/29 07:16:00;;;;;;;19.33;3.93;;;;;;;;;;5073595;28;20477;-74
2022/05/29 07:18:26;;;;;;;6.70;3.00;;;;;;;;;;5073620;28;20884;-76
2022/05/29 07:20:52;;;;;;;5.40;2.80;;;;;;;;;;5073498;28;20457;-74
2022/05/29 07:23:19;;;;;;;7.20;3.70;;;;;;;;;;5071952;28;20877;-75
2022/05/29 07:25:45;;;;;;;6.43;3.40;;;;;;;;;;5073419;28;20514;-74
2022/05/29 07:28:11;;;;;;;8.63;3.30;;;;;;;;;;5073441;28;20892;-74
2022/05/29 07:30:37;;;;;;;8.27;4.10;;;;;;;;;;5073354;28;20468;-75
2022/05/29 07:33:05;;;;;;;6.60;2.53;;;;;;;;;;5073263;28;21323;-75
2022/05/29 07:35:31;;;;;;;6.90;2.93;;;;;;;;;;5073277;28;20554;-76
2022/05/29 07:37:57;;;;;;;6.27;2.83;;;;;;;;;;5073324;28;20750;-76
2022/05/29 07:40:24;;;;;;;7.53;2.63;;;;;;;;;;5073341;28;20411;-77
2022/05/29 07:45:34;;;;;;;5.30;2.83;;;;;;;;;;5073468;28;20454;-76
2022/05/29 07:48:01;;;;;;;5.93;2.80;;;;;;;;;;5073177;28;20782;-76
2022/05/29 07:50:27;;;;;;;5.60;3.17;;;;;;;;;;5073432;28;20459;-75
2022/05/29 07:52:54;;;;;;;7.20;3.00;;;;;;;;;;5072926;28;20415;-75
2022/05/29 07:55:20;;;;;;;7.30;3.10;;;;;;;;;;5071851;28;21049;-74
2022/05/29 07:57:47;;;;;;;5.57;2.43;;;;;;;;;;5073301;28;20415;-75
2022/05/29 08:00:14;;;;;;;3.20;2.13;;;;;;;;;;5073126;28;20407;-74
2022/05/29 08:02:40;;;;;;;4.73;1.87;;;;;;;;;;5071765;28;20420;-74
2022/05/29 08:05:07;;;;;;;6.13;2.60;;;;;;;;;;5072790;28;20838;-75
2022/05/29 08:07:33;;;;;;;2.07;1.60;;;;;;;;;;5071773;28;20415;-74
2022/05/29 08:09:59;;;;;;;3.80;1.70;;;;;;;;;;5073072;28;20435;-76
2022/05/29 08:12:25;;;;;;;2.17;1.50;;;;;;;;;;5072958;28;20411;-76
2022/05/29 08:14:51;;;;;;;7.80;2.30;;;;;;;;;;5071440;28;20426;-76
2022/05/29 08:17:17;;;;;;;4.17;1.97;;;;;;;;;;5072937;28;20412;-76
2022/05/29 08:19:43;;;;;;;4.93;2.70;;;;;;;;;;5072839;28;20403;-74
2022/05/29 08:22:09;;;;;;;8.13;1.90;;;;;;;;;;5072871;28;20473;-76
2022/05/29 08:33:05;;;;;;;4.90;2.10;;;;;;;;;;5072542;28;20534;-74
2022/05/29 08:35:32;;;;;;;7.20;1.90;;;;;;;;;;5072400;28;21254;-74
2022/05/29 08:37:58;;;;;;;4.40;2.20;;;;;;;;;;5071426;28;20390;-75
2022/05/29 08:40:24;;;;;;;5.30;2.40;;;;;;;;;;5072548;28;20404;-75
2022/05/29 08:42:50;;;;;;;2.17;1.87;;;;;;;;;;5072581;28;20395;-75
2022/05/29 08:45:18;;;;;;;3.67;2.10;;;;;;;;;;5072274;28;20522;-76
2022/05/29 08:47:47;;;;;;;6.90;2.50;;;;;;;;;;5072656;28;20408;-75
2022/05/29 08:50:19;;;;;;;3.83;2.10;;;;;;;;;;5072583;28;20761;-76
2022/05/29 08:52:55;;;;;;;4.33;2.13;;;;;;;;;;5072686;28;20404;-74
2022/05/29 08:55:24;;;;;;;6.33;2.40;;;;;;;;;;5072282;28;20480;-75
2022/05/29 08:57:54;;;;;;;7.13;3.13;;;;;;;;;;5071222;28;20421;-76
2022/05/29 09:00:29;;;;;;;4.90;3.53;;;;;;;;;;5075377;28;20675;-76
2022/05/29 09:03:16;;;;;;;5.47;2.60;;;;;;;;;;5076192;28;20414;-74
2022/05/29 09:05:45;;;;;;;3.43;2.20;;;;;;;;;;5076212;28;20433;-74
2022/05/29 09:08:16;;;;;;;3.83;2.23;;;;;;;;;;5076391;28;20382;-76
2022/05/29 09:10:43;;;;;;;4.20;2.37;;;;;;;;;;5076266;28;20746;-77
2022/05/29 09:13:14;;;;;;;6.60;2.50;;;;;;;;;;5075610;28;20388;-75
2022/05/29 09:15:42;;;;;;;4.33;2.40;;;;;;;;;;5075794;28;20471;-75
2022/05/29 09:18:12;;;;;;;2.53;1.77;;;;;;;;;;5075896;28;20506;-75
2022/05/29 09:20:42;;;;;;;5.03;2.00;;;;;;;;;;5075862;28;20480;-76
2022/05/29 09:23:09;;;;;;;3.03;1.60;;;;;;;;;;5074339;28;21040;-75
2022/05/29 09:25:37;;;;;;;3.80;1.80;;;;;;;;;;5075563;28;20438;-77
2022/05/29 09:28:26;;;;;;;3.50;2.10;;;;;;;;;;5075760;28;20386;-74
2022/05/29 09:30:53;;;;;;;3.93;1.70;;;;;;;;;;5070109;28;20435;-75
2022/05/29 09:33:24;;;;;;;5.20;2.30;;;;;;;;;;5075284;28;20394;-75
2022/05/29 09:35:59;;;;;;;5.00;2.43;;;;;;;;;;5075305;28;20442;-76
2022/05/29 09:38:28;;;;;;;4.53;2.00;;;;;;;;;;5075714;28;20399;-73
2022/05/29 09:40:57;;;;;;;2.63;1.90;;;;;;;;;;5075658;28;20471;-74
2022/05/29 09:43:24;;;;;;;3.90;1.97;;;;;;;;;;5075241;28;20411;-77
2022/05/29 09:45:51;;;;;;;5.43;1.70;;;;;;;;;;5075370;28;20429;-76
2022/05/29 09:51:18;;;;;;;3.97;1.83;;;;;;;;;;5075802;28;20411;-75
2022/05/29 09:53:50;;;;;;;5.30;3.10;;;;;;;;;;5074913;28;20414;-75
2022/05/29 09:56:24;;;;;;;3.10;1.43;;;;;;;;;;5075637;28;20861;-75
2022/05/29 09:58:56;;;;;;;3.17;1.60;;;;;;;;;;5074329;28;20374;-73
2022/05/29 10:01:27;;;;;;;4.93;2.37;;;;;;;;;;5075278;28;20412;-76
2022/05/29 10:03:55;;;;;;;5.83;2.23;;;;;;;;;;5074533;28;20863;-77
2022/05/29 10:06:30;;;;;;;5.13;2.07;;;;;;;;;;5074994;28;20386;-76
2022/05/29 10:09:10;;;;;;;4.03;2.43;;;;;;;;;;5075167;28;20386;-78
2022/05/29 10:11:37;;;;;;;5.63;2.53;;;;;;;;;;5073727;28;20441;-75
2022/05/29 10:14:21;;;;;;;7.57;2.90;;;;;;;;;;5074369;28;20435;-76
2022/05/29 10:16:49;;;;;;;4.77;2.20;;;;;;;;;;5074633;28;20454;-74
2022/05/29 10:19:31;;;;;;;3.73;2.57;;;;;;;;;;5074611;28;20403;-76
2022/05/29 10:21:57;;;;;;;6.10;3.00;;;;;;;;;;5074423;28;20883;-78
2022/05/29 10:24:28;;;;;;;5.27;3.40;;;;;;;;;;5073960;28;20526;-76
2022/05/29 10:26:56;;;;;;;5.97;3.10;;;;;;;;;;5074504;28;20467;-77
2022/05/29 10:29:29;;;;;;;5.60;3.60;;;;;;;;;;5073025;28;20628;-78
2022/05/29 10:31:57;;;;;;;7.43;3.07;;;;;;;;;;5073896;28;20797;-77
2022/05/29 10:34:22;;;;;;;13.90;3.40;;;;;;;;;;5073659;28;20413;-76
2022/05/29 10:36:48;;;;;;;6.70;3.00;;;;;;;;;;5074158;28;20816;-76
2022/05/29 10:39:20;;;;;;;6.30;2.70;;;;;;;;;;5074162;28;20404;-76
2022/05/29 10:41:47;;;;;;;5.20;3.07;;;;;;;;;;5073924;28;20404;-76
2022/05/29 10:44:14;;;;;;;8.20;2.67;;;;;;;;;;5073465;28;20889;-76
2022/05/29 10:46:43;;;;;;;10.50;3.30;;;;;;;;;;5074098;28;20390;-76
2022/05/29 10:49:29;;;;;;;5.87;2.60;;;;;;;;;;5073925;28;20404;-75
2022/05/29 10:52:11;;;;;;;5.03;2.57;;;;;;;;;;5073949;28;20879;-75
2022/05/29 10:54:42;;;;;;;8.00;3.10;;;;;;;;;;5073401;28;20469;-75
2022/05/29 10:57:20;;;;;;;8.93;3.60;;;;;;;;;;5073704;28;21657;-76
2022/05/29 10:59:59;;;;;;;6.97;2.80;;;;;;;;;;5073785;28;20389;-77
2022/05/29 11:05:19;;;;;;;4.67;2.73;;;;;;;;;;5073246;28;20422;-76
2022/05/29 11:07:55;;;;;;;7.93;3.50;;;;;;;;;;5073678;28;20396;-76
2022/05/29 11:10:30;;;;;;;7.87;4.10;;;;;;;;;;5073826;28;20438;-75
2022/05/29 11:13:16;;;;;;;11.63;4.07;;;;;;;;;;5071899;28;20403;-75
2022/05/29 11:15:51;;;;;;;6.82;3.20;;;;;;;;;;5073289;28;20465;-76
2022/05/29 11:18:36;;;;;;;6.23;3.60;;;;;;;;;;5073481;28;20187;-75
2022/05/29 11:21:10;;;;;;;10.03;3.90;;;;;;;;;;5073314;28;20395;-76
2022/05/29 11:23:54;;;;;;;9.27;3.83;;;;;;;;;;5072924;28;20849;-74
2022/05/29 11:26:32;;;;;;;7.07;4.37;;;;;;;;;;5073148;28;20181;-76
2022/05/29 11:29:01;;;;;;;5.57;4.10;;;;;;;;;;5073167;28;20411;-75
2022/05/29 11:31:27;;;;;;;7.80;4.43;;;;;;;;;;5072937;28;20454;-77
2022/05/29 11:33:59;;;;;;;9.00;4.33;;;;;;;;;;5072828;28;20489;-77
2022/05/29 11:36:39;;;;;;;9.90;4.80;;;;;;;;;;5072972;28;20455;-75
2022/05/29 11:39:11;;;;;;;7.07;4.13;;;;;;;;;;5071795;28;20962;-76
2022/05/29 11:41:46;;;;;;;6.90;4.00;;;;;;;;;;5073191;28;20823;-75
2022/05/29 11:44:19;;;;;;;4.47;3.23;;;;;;;;;;5072785;28;20427;-75
2022/05/29 11:52:21;;;;;;;5.60;3.43;;;;;;;;;;5073135;28;20426;-75
2022/05/29 11:55:01;;;;;;;7.23;3.50;;;;;;;;;;5072350;28;20488;-74
2022/05/29 11:57:42;;;;;;;4.30;2.60;;;;;;;;;;5072855;28;20413;-74
2022/05/29 12:00:27;;;;;;;5.17;2.97;;;;;;;;;;5072853;28;20392;-76
2022/05/29 12:03:13;;;;;;;4.70;3.20;;;;;;;;;;5072642;28;20407;-75
2022/05/29 12:05:44;;;;;;;5.00;2.70;;;;;;;;;;5065336;28;20459;-75
2022/05/29 12:08:10;;;;;;;4.83;3.10;;;;;;;;;;5072880;28;20399;-75
2022/05/29 12:10:58;;;;;;;3.23;2.50;;;;;;;;;;5072807;28;20404;-76
2022/05/29 12:13:28;;;;;;;6.03;2.37;;;;;;;;;;5072514;28;20483;-78
2022/05/29 12:15:58;;;;;;;2.70;2.03;;;;;;;;;;5071178;28;20471;-76
2022/05/29 12:18:26;;;;;;;3.50;2.27;;;;;;;;;;5071318;28;20482;-76
2022/05/29 12:20:57;;;;;;;2.33;1.77;;;;;;;;;;5071005;28;20382;-76
2022/05/29 12:23:26;;;;;;;2.90;2.10;;;;;;;;;;5072402;28;20408;-75
2022/05/29 12:26:00;;;;;;;5.27;1.70;;;;;;;;;;5071287;28;20442;-74
2022/05/29 12:28:38;;;;;;;2.77;1.53;;;;;;;;;;5072664;28;20386;-75
2022/05/29 12:31:06;;;;;;;2.70;1.97;;;;;;;;;;5072321;28;21058;-74
2022/05/29 12:33:33;;;;;;;3.67;1.80;;;;;;;;;;5072324;28;20415;-75
2022/05/29 12:36:21;;;;;;;3.30;1.40;;;;;;;;;;5076514;28;20471;-74
2022/05/29 12:38:50;;;;;;;1.97;1.20;;;;;;;;;;5077060;28;20938;-74
2022/05/29 12:41:19;;;;;;;2.20;1.30;;;;;;;;;;5076309;28;20420;-76
2022/05/29 12:43:58;;;;;;;3.83;1.70;;;;;;;;;;5076064;28;20904;-78
2022/05/29 12:46:30;;;;;;;4.00;1.30;;;;;;;;;;5076557;28;20403;-75
2022/05/29 12:48:59;;;;;;;1.23;1.13;;;;;;;;;;5076431;28;20426;-75
2022/05/29 12:51:43;;;;;;;2.17;1.60;;;;;;;;;;5076407;28;20507;-77
2022/05/29 12:54:35;;;;;;;3.50;1.63;;;;;;;;;;5075893;28;20895;-76
2022/05/29 12:57:01;;;;;;;3.90;1.40;;;;;;;;;;5060074;28;20961;-78
2022/05/29 12:59:41;;;;;;;3.33;1.40;;;;;;;;;;5076334;28;20425;-76
2022/05/29 13:02:23;;;;;;;1.60;1.40;;;;;;;;;;5076281;28;20407;-74
2022/05/29 13:05:04;;;;;;;1.90;1.53;;;;;;;;;;5075681;28;20493;-77
2022/05/29 13:07:52;;;;;;;2.93;1.33;;;;;;;;;;5076011;28;20416;-76
2022/05/29 13:10:23;;;;;;;1.23;1.13;;;;;;;;;;5075993;28;20523;-76
2022/05/29 13:12:54;;;;;;;3.70;1.80;;;;;;;;;;5076170;28;20415;-74
2022/05/29 13:15:26;;;;;;;4.47;1.57;;;;;;;;;;5075476;28;20462;-75
2022/05/29 13:21:05;;;;;;;4.33;1.80;;;;;;;;;;5075830;28;20864;-77
2022/05/29 13:23:32;;;;;;;2.30;1.43;;;;;;;;;;5073888;28;20942;-78
2022/05/29 13:25:58;;;;;;;1.87;1.60;;;;;;;;;;5075643;28;20903;-76
2022/05/29 13:28:43;;;;;;;2.23;1.50;;;;;;;;;;5075554;28;20383;-78
2022/05/29 13:31:09;;;;;;;3.73;2.00;;;;;;;;;;5075471;28;20769;-77
2022/05/29 13:33:44;;;;;;;3.53;1.40;;;;;;;;;;5075154;28;20390;-76
2022/05/29 13:36:30;;;;;;;2.20;1.57;;;;;;;;;;5075424;28;20464;-75
2022/05/29 13:38:56;;;;;;;2.50;1.20;;;;;;;;;;5075288;28;20415;-75
2022/05/29 13:41:30;;;;;;;2.43;1.50;;;;;;;;;;5075237;28;20391;-76
2022/05/29 13:43:56;;;;;;;1.53;1.20;;;;;;;;;;5075107;28;20401;-74
2022/05/29 13:46:25;;;;;;;1.83;1.00;;;;;;;;;;5075459;28;20430;-77
2022/05/29 13:49:01;;;;;;;2.37;1.27;;;;;;;;;;5075043;28;20440;-77
2022/05/29 13:51:28;;;;;;;1.63;0.80;;;;;;;;;;5075522;28;20422;-77
2022/05/29 13:54:01;;;;;;;1.40;1.00;;;;;;;;;;5074812;28;20411;-77
2022/05/29 13:56:54;;;;;;;0.83;0.70;;;;;;;;;;5075142;28;20499;-77
2022/05/29 14:03:58;;;;;;;2.60;0.70;;;;;;;;;;5075412;28;20786;-77
2022/05/29 14:05:11;;;;;;;1.63;0.70;;;;;;;;;;5074902;28;20420;-78
2022/05/29 14:07:38;;;;;;;1.00;0.70;;;;;;;;;;5073656;28;20889;-76
2022/05/29 14:10:19;;;;;;;0.70;0.63;;;;;;;;;;5074834;28;20403;-76
2022/05/29 14:12:48;;;;;;;1.60;1.00;;;;;;;;;;5074826;28;20400;-75
2022/05/29 14:15:33;;;;;;;1.60;1.03;;;;;;;;;;5074490;28;20820;-76
2022/05/29 14:18:01;;;;;;;1.20;0.90;;;;;;;;;;5074844;28;20407;-77
2022/05/29 14:20:47;;;;;;;2.70;1.23;;;;;;;;;;5074826;28;20854;-76
2022/05/29 14:23:29;;;;;;;2.03;1.20;;;;;;;;;;5074390;28;20728;-76
2022/05/29 14:26:01;;;;;;;1.70;1.37;;;;;;;;;;5074440;28;20437;-76
2022/05/29 14:28:45;;;;;;;2.87;1.57;;;;;;;;;;5074769;28;20826;-75
2022/05/29 14:31:18;;;;;;;2.10;1.50;;;;;;;;;;5074383;28;20427;-76
2022/05/29 14:34:07;;;;;;;2.07;1.30;;;;;;;;;;5073928;28;20499;-75
2022/05/29 14:36:39;;;;;;;2.10;1.20;;;;;;;;;;5074291;28;20486;-77
2022/05/29 14:39:23;;;;;;;3.53;1.10;;;;;;;;;;5074525;28;20400;-76
2022/05/29 14:41:56;;;;;;;1.23;0.80;;;;;;;;;;5074112;28;20418;-76
2022/05/29 14:44:25;;;;;;;1.83;0.87;;;;;;;;;;5072409;28;20456;-76
2022/05/29 14:47:02;;;;;;;1.20;0.83;;;;;;;;;;5074198;28;20407;-76
2022/05/29 14:49:48;;;;;;;1.40;1.00;;;;;;;;;;5074179;28;20480;-76
2022/05/29 14:52:24;;;;;;;2.93;0.93;;;;;;;;;;5073903;28;20783;-75
2022/05/29 14:54:51;;;;;;;1.73;1.00;;;;;;;;;;5073748;28;20447;-74
2022/05/29 14:57:21;;;;;;;2.70;0.80;;;;;;;;;;5073471;28;20434;-75
2022/05/29 14:59:47;;;;;;;2.20;1.10;;;;;;;;;;5073810;28;20446;-77
2022/05/29 15:02:19;;;;;;;2.23;0.90;;;;;;;;;;5073852;28;20436;-76
2022/05/29 15:04:46;;;;;;;1.20;0.70;;;;;;;;;;5073454;28;20474;-77
2022/05/29 15:10:30;;;;;;;3.90;0.80;;;;;;;;;;5073935;28;20431;-77
2022/05/29 15:13:00;;;;;;;2.53;1.10;;;;;;;;;;5073528;28;20420;-77
2022/05/29 15:15:27;;;;;;;2.37;0.90;;;;;;;;;;5073395;28;20471;-79
2022/05/29 15:18:05;;;;;;;1.50;0.90;;;;;;;;;;5072183;28;20852;-80
2022/05/29 15:26:07;;;;;;;5.63;2.07;;;;;;;;;;5073631;28;20423;-78
2022/05/29 15:28:34;;;;;;;3.60;2.30;;;;;;;;;;5073233;28;20464;-76
2022/05/29 15:31:01;;;;;;;1.80;1.53;;;;;;;;;;5072979;28;20435;-79
2022/05/29 15:33:42;;;;;;;2.03;1.83;;;;;;;;;;5072500;28;20407;-77
2022/05/29 15:36:08;;;;;;;2.07;1.40;;;;;;;;;;5079723;28;20787;-79
2022/05/29 15:38:53;;;;;;;5.80;1.40;;;;;;;;;;5091865;28;20414;-76
2022/05/29 15:41:24;;;;;;;1.43;0.90;;;;;;;;;;5074714;28;20418;-77
2022/05/29 15:43:55;;;;;;;2.85;1.40;;;;;;;;;;5073659;28;20415;-77
2022/05/29 15:46:25;;;;;;;1.77;1.10;;;;;;;;;;5082352;28;20238;-76
2022/05/29 15:49:06;;;;;;;1.30;1.13;;;;;;;;;;5085568;28;20418;-76
2022/05/29 15:51:41;;;;;;;1.20;1.10;;;;;;;;;;5087503;28;20580;-77